createdAt,value
2019-01-10T00:02:11.995Z,68.60
2019-01-10T00:04:50.187Z,68.10
2019-01-10T00:07:28.598Z,67.50
2019-01-10T00:10:08.146Z,67.80
2019-01-10T00:12:47.411Z,66.70
2019-01-10T00:15:40.322Z,70.00
2019-01-10T00:18:22.356Z,67.80
2019-01-10T00:21:00.376Z,70.10
2019-01-10T00:23:38.119Z,69.70
2019-01-10T00:26:17.328Z,68.30
2019-01-10T00:28:56.330Z,69.30
2019-01-10T00:34:30.622Z,70.50
2019-01-10T00:37:08.689Z,69.50
2019-01-10T00:39:47.389Z,69.80
2019-01-10T00:42:26.138Z,66.80
2019-01-10T00:45:05.922Z,67.50
2019-01-10T00:47:45.172Z,67.00
2019-01-10T00:50:25.691Z,67.20
2019-01-10T00:53:03.933Z,67.20
2019-01-10T00:55:41.726Z,68.10
2019-01-10T00:58:20.049Z,69.40
2019-01-10T01:00:58.295Z,68.50
2019-01-10T01:03:37.157Z,70.50
2019-01-10T01:06:15.787Z,72.00
2019-01-10T01:08:54.074Z,70.20
2019-01-10T01:11:32.818Z,69.90
2019-01-10T01:14:10.976Z,70.00
2019-01-10T01:16:49.314Z,71.80
2019-01-10T01:19:28.588Z,73.50
2019-01-10T01:22:07.051Z,72.80
2019-01-10T01:24:49.709Z,71.20
2019-01-10T01:27:28.204Z,69.00
2019-01-10T01:30:06.400Z,67.90
2019-01-10T01:32:45.086Z,67.70
2019-01-10T01:35:23.005Z,67.00
2019-01-10T01:38:02.138Z,69.20
2019-01-10T01:40:40.054Z,72.30
2019-01-10T01:43:18.521Z,68.40
2019-01-10T01:48:58.869Z,67.40
2019-01-10T01:51:36.730Z,66.60
2019-01-10T01:54:14.361Z,67.20
2019-01-10T01:56:52.810Z,66.90
2019-01-10T01:59:31.075Z,69.00
2019-01-10T02:02:09.404Z,68.60
2019-01-10T02:04:47.924Z,66.90
2019-01-10T02:13:27.394Z,70.30
2019-01-10T02:16:05.662Z,68.10
2019-01-10T02:18:43.880Z,67.50
2019-01-10T02:21:22.094Z,70.70
2019-01-10T02:26:57.701Z,67.50
2019-01-10T02:29:37.306Z,68.10
2019-01-10T02:32:17.336Z,67.70
2019-01-10T02:35:09.981Z,69.80
2019-01-10T02:37:47.955Z,70.30
2019-01-10T02:40:26.816Z,69.70
2019-01-10T02:43:04.882Z,67.20
2019-01-10T02:45:44.502Z,67.40
2019-01-10T02:48:23.106Z,71.50
2019-01-10T02:51:04.155Z,67.50
2019-01-10T02:53:42.809Z,68.30
2019-01-10T02:56:21.126Z,67.00
2019-01-10T02:58:59.155Z,67.90
2019-01-10T03:01:37.943Z,67.20
2019-01-10T03:07:17.165Z,72.30
2019-01-10T03:09:56.051Z,68.70
2019-01-10T03:12:34.842Z,67.40
2019-01-10T03:15:15.944Z,67.70
2019-01-10T03:20:56.628Z,68.40
2019-01-10T03:23:35.726Z,71.90
2019-01-10T03:26:14.612Z,69.10
2019-01-10T03:28:52.521Z,68.60
2019-01-10T03:31:31.452Z,69.00
2019-01-10T03:34:09.261Z,68.90
2019-01-10T03:36:47.648Z,68.60
2019-01-10T03:39:27.290Z,70.90
2019-01-10T03:42:05.986Z,68.10
2019-01-10T03:44:54.796Z,67.90
2019-01-10T03:47:32.740Z,66.60
2019-01-10T03:50:11.210Z,66.20
2019-01-10T03:52:49.719Z,69.00
2019-01-10T03:55:30.614Z,68.40
2019-01-10T03:58:09.306Z,66.10
2019-01-10T04:00:48.046Z,67.80
2019-01-10T04:03:26.609Z,67.50
2019-01-10T04:09:00.318Z,67.40
2019-01-10T04:14:38.266Z,68.40
2019-01-10T04:17:17.025Z,69.00
2019-01-10T04:19:55.499Z,66.20
2019-01-10T04:22:35.770Z,65.40
2019-01-10T04:25:15.738Z,65.50
2019-01-10T04:27:54.518Z,65.80
2019-01-10T04:33:32.353Z,65.60
2019-01-10T04:36:10.785Z,66.10
2019-01-10T04:38:52.364Z,66.50
2019-01-10T04:41:30.103Z,65.30
2019-01-10T04:44:10.651Z,65.30
2019-01-10T04:46:54.402Z,67.50
2019-01-10T04:49:34.197Z,67.40
2019-01-10T04:52:13.312Z,69.80
2019-01-10T04:54:56.053Z,65.30
2019-01-10T05:00:45.302Z,63.80
2019-01-10T05:03:25.621Z,63.90
2019-01-10T05:06:04.990Z,64.20
2019-01-10T05:08:47.026Z,64.40
2019-01-10T05:11:25.801Z,64.50
2019-01-10T05:14:16.202Z,64.40
2019-01-10T05:16:49.636Z,63.90
2019-01-10T05:19:28.402Z,65.00
2019-01-10T05:22:08.615Z,64.40
2019-01-10T05:30:27.065Z,64.20
2019-01-10T05:36:20.288Z,66.80
2019-01-10T05:38:59.589Z,64.80
2019-01-10T05:41:48.524Z,65.30
2019-01-10T05:44:28.162Z,65.40
2019-01-10T05:47:09.666Z,64.60
2019-01-10T05:49:54.363Z,66.20
2019-01-10T05:52:35.594Z,67.60
2019-01-10T05:55:20.644Z,64.30
2019-01-10T05:57:58.955Z,63.30
2019-01-10T06:00:40.910Z,63.80
2019-01-10T06:03:20.209Z,63.90
2019-01-10T06:05:59.892Z,63.00
2019-01-10T06:08:41.606Z,66.80
2019-01-10T06:11:24.086Z,65.60
2019-01-10T06:17:33.824Z,65.70
2019-01-10T06:20:58.966Z,67.40
2019-01-10T06:23:41.619Z,63.70
2019-01-10T06:26:21.679Z,63.00
2019-01-10T06:29:02.207Z,62.30
2019-01-10T06:31:53.463Z,64.80
2019-01-10T06:34:35.458Z,65.20
2019-01-10T06:37:15.973Z,64.30
2019-01-10T06:39:56.987Z,65.90
2019-01-10T06:42:35.782Z,65.60
2019-01-10T06:45:17.584Z,63.10
2019-01-10T06:53:52.190Z,62.40
2019-01-10T06:56:32.984Z,62.20
2019-01-10T06:59:12.581Z,62.50
2019-01-10T07:01:50.732Z,62.40
2019-01-10T07:07:27.849Z,60.80
2019-01-10T07:10:13.132Z,61.40
2019-01-10T07:12:58.399Z,60.90
2019-01-10T07:15:40.295Z,61.40
2019-01-10T07:18:24.081Z,60.80
2019-01-10T07:21:07.276Z,60.90
2019-01-10T07:23:54.323Z,60.10
2019-01-10T07:26:33.769Z,59.20
2019-01-10T07:29:15.863Z,59.70
2019-01-10T07:32:02.803Z,59.10
2019-01-10T07:34:41.210Z,59.50
2019-01-10T07:37:20.537Z,59.80
2019-01-10T07:40:01.806Z,59.50
2019-01-10T07:42:49.356Z,58.30
2019-01-10T07:45:36.531Z,58.10
2019-01-10T07:48:18.107Z,58.00
2019-01-10T07:50:57.701Z,58.10
2019-01-10T07:53:37.179Z,59.80
2019-01-10T07:56:19.578Z,59.20
2019-01-10T07:59:01.724Z,59.70
2019-01-10T08:01:44.127Z,57.60
2019-01-10T08:04:22.431Z,58.10
2019-01-10T08:07:11.923Z,58.10
2019-01-10T08:09:51.001Z,58.50
2019-01-10T08:12:29.012Z,58.00
2019-01-10T08:15:12.605Z,57.70
2019-01-10T08:17:56.131Z,57.40
2019-01-10T08:20:36.801Z,59.40
2019-01-10T08:23:14.999Z,58.40
2019-01-10T08:25:55.445Z,57.30
2019-01-10T08:28:36.932Z,56.70
2019-01-10T08:31:23.855Z,57.20
2019-01-10T08:34:02.405Z,58.10
2019-01-10T08:36:48.788Z,59.80
2019-01-10T08:39:30.855Z,58.20
2019-01-10T08:42:12.547Z,57.60
2019-01-10T08:44:50.941Z,57.50
2019-01-10T08:47:28.839Z,57.50
2019-01-10T08:50:08.582Z,56.50
2019-01-10T08:52:54.026Z,57.30
2019-01-10T08:55:36.060Z,56.70
2019-01-10T08:58:14.648Z,56.80
2019-01-10T09:00:58.021Z,57.90
2019-01-10T09:03:38.781Z,58.40
2019-01-10T09:06:17.250Z,58.30
2019-01-10T09:08:56.843Z,58.40
2019-01-10T09:11:39.613Z,58.60
2019-01-10T09:14:24.729Z,58.70
2019-01-10T09:17:05.251Z,59.10
2019-01-10T09:19:45.123Z,58.80
2019-01-10T09:22:23.449Z,58.60
2019-01-10T09:25:02.222Z,58.10
2019-01-10T09:27:43.936Z,57.70
2019-01-10T09:33:20.861Z,56.90
2019-01-10T09:36:03.637Z,56.80
2019-01-10T09:38:43.441Z,56.80
2019-01-10T09:41:24.086Z,57.40
2019-01-10T09:44:03.301Z,57.80
2019-01-10T09:46:42.317Z,57.20
2019-01-10T09:49:20.380Z,57.50
2019-01-10T09:51:59.745Z,57.10
2019-01-10T09:54:39.271Z,58.40
2019-01-10T09:57:19.682Z,57.30
2019-01-10T09:59:57.367Z,57.40
2019-01-10T10:02:37.357Z,59.80
2019-01-10T10:05:17.511Z,60.90
2019-01-10T10:07:56.095Z,58.70
2019-01-10T10:10:35.001Z,60.50
2019-01-10T10:13:15.595Z,60.50
2019-01-10T10:15:56.867Z,58.60
2019-01-10T10:18:36.638Z,58.10
2019-01-10T10:21:16.009Z,58.10
2019-01-10T10:23:54.148Z,58.10
2019-01-10T10:26:32.529Z,57.80
2019-01-10T10:29:12.196Z,58.80
2019-01-10T10:31:51.336Z,58.80
2019-01-10T10:34:33.347Z,59.90
2019-01-10T10:37:12.922Z,60.50
2019-01-10T10:39:54.937Z,61.80
2019-01-10T10:42:33.683Z,59.10
2019-01-10T10:45:15.809Z,57.90
2019-01-10T10:47:56.467Z,57.80
2019-01-10T10:50:35.423Z,58.40
2019-01-10T10:53:14.104Z,57.70
2019-01-10T10:55:53.478Z,57.10
2019-01-10T10:58:33.007Z,57.00
2019-01-10T11:01:12.882Z,57.20
2019-01-10T11:03:52.842Z,57.00
2019-01-10T11:06:36.074Z,57.20
2019-01-10T11:09:16.995Z,59.60
2019-01-10T11:11:57.042Z,58.50
2019-01-10T11:14:38.991Z,57.20
2019-01-10T11:17:21.684Z,57.00
2019-01-10T11:20:02.076Z,56.70
2019-01-10T11:22:43.486Z,56.60
2019-01-10T11:25:26.826Z,56.90
2019-01-10T11:28:16.204Z,57.60
2019-01-10T11:30:58.287Z,56.90
2019-01-10T11:33:38.795Z,56.20
2019-01-10T11:36:25.153Z,57.10
2019-01-10T11:39:05.936Z,56.70
2019-01-10T11:41:47.311Z,56.70
2019-01-10T11:44:28.425Z,57.60
2019-01-10T11:47:08.843Z,56.40
2019-01-10T11:49:48.417Z,56.90
2019-01-10T11:52:26.730Z,58.70
2019-01-10T11:55:07.019Z,57.30
2019-01-10T11:57:50.333Z,57.70
2019-01-10T12:00:37.872Z,57.50
2019-01-10T12:03:21.863Z,56.50
2019-01-10T12:06:00.963Z,56.40
2019-01-10T12:08:46.102Z,59.40
2019-01-10T12:11:25.851Z,59.10
2019-01-10T12:14:10.361Z,57.60
2019-01-10T12:16:51.144Z,57.00
2019-01-10T12:19:30.520Z,58.70
2019-01-10T12:22:14.947Z,58.90
2019-01-10T12:24:58.486Z,57.70
2019-01-10T12:27:38.382Z,56.90
2019-01-10T12:30:26.086Z,58.10
2019-01-10T12:33:13.199Z,57.60
2019-01-10T12:35:54.423Z,57.50
2019-01-10T12:38:37.099Z,58.10
2019-01-10T12:41:16.089Z,57.00
2019-01-10T12:43:58.031Z,56.50
2019-01-10T12:46:37.602Z,56.60
2019-01-10T12:49:17.027Z,56.70
2019-01-10T12:51:59.472Z,57.50
2019-01-10T12:54:44.225Z,57.10
2019-01-10T12:57:29.879Z,56.50
2019-01-10T13:00:12.001Z,56.90
2019-01-10T13:02:56.752Z,56.70
2019-01-10T13:05:45.545Z,56.60
2019-01-10T13:08:25.757Z,56.60
2019-01-10T13:11:07.162Z,56.70
2019-01-10T13:13:51.228Z,56.70
2019-01-10T13:16:31.883Z,56.70
2019-01-10T13:19:14.178Z,56.50
2019-01-10T13:21:53.234Z,56.70
2019-01-10T13:24:39.435Z,57.80
2019-01-10T13:27:20.449Z,57.20
2019-01-10T13:30:00.922Z,56.70
2019-01-10T13:32:40.563Z,56.60
2019-01-10T13:35:19.456Z,56.50
2019-01-10T13:38:04.134Z,56.70
2019-01-10T13:40:51.540Z,56.30
2019-01-10T13:43:39.317Z,57.50
2019-01-10T13:46:25.559Z,56.60
2019-01-10T13:49:11.047Z,56.70
2019-01-10T13:51:55.946Z,56.40
2019-01-10T13:54:38.902Z,56.10
2019-01-10T13:57:28.217Z,56.30
2019-01-10T14:00:10.801Z,56.30
2019-01-10T14:02:55.116Z,56.40
2019-01-10T14:05:40.731Z,56.60
2019-01-10T14:08:28.217Z,56.60
2019-01-10T14:11:22.680Z,56.40
2019-01-10T14:14:06.303Z,56.80
2019-01-10T14:16:49.838Z,56.90
2019-01-10T14:19:34.100Z,57.00
2019-01-10T14:22:51.624Z,57.30
2019-01-10T14:25:33.017Z,56.60
2019-01-10T14:28:13.777Z,56.80
2019-01-10T14:30:59.096Z,56.70
2019-01-10T14:33:48.389Z,57.50
2019-01-10T14:36:38.840Z,56.40
2019-01-10T14:39:18.622Z,57.90
2019-01-10T14:41:58.640Z,57.20
2019-01-10T14:47:50.691Z,55.70
2019-01-10T14:50:35.060Z,55.60
2019-01-10T14:53:17.143Z,56.40
2019-01-10T14:55:57.955Z,56.60
2019-01-10T14:58:37.669Z,55.90
2019-01-10T15:01:29.132Z,55.70
2019-01-10T15:04:17.623Z,55.90
2019-01-10T15:07:06.810Z,55.80
2019-01-10T15:09:59.745Z,56.20
2019-01-10T15:13:01.474Z,55.90
2019-01-10T15:15:48.193Z,56.20
2019-01-10T15:18:37.157Z,56.50
2019-01-10T15:21:40.572Z,56.10
2019-01-10T15:24:24.762Z,56.30
2019-01-10T15:27:11.667Z,55.90
2019-01-10T15:29:53.387Z,56.40
2019-01-10T15:32:39.880Z,56.30
2019-01-10T15:35:18.933Z,56.50
2019-01-10T15:38:14.009Z,55.90
2019-01-10T15:41:02.190Z,55.80
2019-01-10T15:43:43.234Z,55.90
2019-01-10T15:46:29.463Z,55.70
2019-01-10T15:49:19.688Z,55.50
2019-01-10T15:52:06.849Z,55.50
2019-01-10T15:55:03.198Z,56.20
2019-01-10T15:58:00.615Z,55.70
2019-01-10T16:01:01.111Z,56.00
2019-01-10T16:03:43.583Z,56.20
2019-01-10T16:06:27.608Z,56.20
2019-01-10T16:09:12.636Z,56.40
2019-01-10T16:11:56.836Z,56.50
2019-01-10T16:14:41.692Z,56.60
2019-01-10T16:17:28.805Z,56.80
2019-01-10T16:20:12.554Z,57.10
2019-01-10T16:22:57.513Z,57.20
2019-01-10T16:25:40.291Z,57.50
2019-01-10T16:28:25.882Z,58.00
2019-01-10T16:31:16.195Z,58.00
2019-01-10T16:34:03.397Z,57.80
2019-01-10T16:36:46.745Z,58.80
2019-01-10T16:39:28.733Z,58.40
2019-01-10T16:42:11.004Z,58.60
2019-01-10T16:44:53.180Z,57.90
2019-01-10T16:47:36.132Z,58.30
2019-01-10T16:50:30.179Z,58.70
2019-01-10T16:53:12.599Z,58.90
2019-01-10T16:55:59.638Z,59.20
2019-01-10T16:58:40.650Z,59.10
2019-01-10T17:01:29.870Z,59.20
2019-01-10T17:04:13.162Z,59.30
2019-01-10T17:06:56.874Z,59.40
2019-01-10T17:09:36.626Z,59.20
2019-01-10T17:12:22.347Z,59.40
2019-01-10T17:15:00.170Z,59.40
2019-01-10T17:17:42.010Z,59.20
2019-01-10T17:20:25.121Z,59.20
2019-01-10T17:23:07.807Z,59.30
2019-01-10T17:25:51.689Z,59.40
2019-01-10T17:28:31.019Z,59.40
2019-01-10T17:31:14.960Z,59.60
2019-01-10T17:33:54.901Z,59.70
2019-01-10T17:36:37.305Z,59.80
2019-01-10T17:39:17.243Z,59.40
2019-01-10T17:41:55.891Z,59.50
2019-01-10T17:44:53.838Z,59.60
2019-01-10T17:47:35.462Z,59.70
2019-01-10T17:50:14.872Z,60.10
2019-01-10T17:52:56.946Z,60.20
2019-01-10T17:55:48.419Z,60.00
2019-01-10T17:58:29.011Z,60.20
2019-01-10T18:01:08.999Z,60.20
2019-01-10T18:03:48.349Z,60.30
2019-01-10T18:06:32.462Z,60.70
2019-01-10T18:09:13.720Z,60.40
2019-01-10T18:11:54.479Z,60.30
2019-01-10T18:14:37.523Z,60.50
2019-01-10T18:17:15.014Z,60.70
2019-01-10T18:19:54.005Z,61.10
2019-01-10T18:22:36.910Z,60.60
2019-01-10T18:25:15.487Z,60.50
2019-01-10T18:27:53.117Z,61.00
2019-01-10T18:30:31.459Z,61.30
2019-01-10T18:33:12.737Z,61.60
2019-01-10T18:35:51.698Z,61.20
2019-01-10T18:38:31.286Z,61.40
2019-01-10T18:41:12.317Z,61.70
2019-01-10T18:43:58.667Z,62.00
2019-01-10T18:46:39.203Z,62.10
2019-01-10T18:49:21.321Z,62.50
2019-01-10T18:52:04.851Z,62.70
2019-01-10T18:54:45.819Z,62.70
2019-01-10T18:57:24.298Z,62.90
2019-01-10T19:00:03.338Z,62.70
2019-01-10T19:02:43.580Z,62.50
2019-01-10T19:05:26.281Z,63.00
2019-01-10T19:08:04.586Z,63.20
2019-01-10T19:10:43.025Z,63.30
2019-01-10T19:13:22.606Z,63.50
2019-01-10T19:16:04.623Z,63.60
2019-01-10T19:18:43.366Z,63.60
2019-01-10T19:21:24.062Z,63.80
2019-01-10T19:24:03.002Z,63.90
2019-01-10T19:26:42.475Z,64.30
2019-01-10T19:29:21.682Z,64.60
2019-01-10T19:31:59.416Z,64.60
2019-01-10T19:34:40.608Z,65.60
2019-01-10T19:37:20.955Z,64.90
2019-01-10T19:40:02.693Z,65.10
2019-01-10T19:42:43.089Z,65.10
2019-01-10T19:45:22.163Z,65.40
2019-01-10T19:48:11.184Z,65.50
2019-01-10T19:50:51.547Z,65.80
2019-01-10T19:53:33.881Z,65.90
2019-01-10T19:56:11.591Z,65.90
2019-01-10T19:58:49.593Z,66.00
2019-01-10T20:01:29.951Z,66.10
2019-01-10T20:04:10.010Z,65.90
2019-01-10T20:06:47.910Z,66.20
2019-01-10T20:09:29.936Z,65.80
2019-01-10T20:12:08.500Z,65.80
2019-01-10T20:14:47.979Z,66.40
2019-01-10T20:17:30.051Z,66.50
2019-01-10T20:20:11.320Z,66.40
2019-01-10T20:22:48.363Z,66.50
2019-01-10T20:25:29.644Z,66.40
2019-01-10T20:28:07.460Z,66.40
2019-01-10T20:30:46.075Z,66.40
2019-01-10T20:33:25.770Z,66.50
2019-01-10T20:36:04.154Z,66.40
2019-01-10T20:38:43.968Z,66.50
2019-01-10T20:41:21.340Z,66.40
2019-01-10T20:44:01.320Z,66.70
2019-01-10T20:46:39.503Z,66.50
2019-01-10T20:49:18.663Z,66.40
2019-01-10T20:51:56.045Z,66.40
2019-01-10T20:54:35.716Z,66.50
2019-01-10T20:57:16.027Z,67.00
2019-01-10T20:59:53.320Z,66.80
2019-01-10T21:02:31.175Z,66.90
2019-01-10T21:05:10.083Z,66.60
2019-01-10T21:07:51.339Z,66.70
2019-01-10T21:10:29.896Z,66.60
2019-01-10T21:13:08.317Z,66.60
2019-01-10T21:15:46.418Z,66.90
2019-01-10T21:18:28.620Z,67.00
2019-01-10T21:21:05.383Z,66.70
2019-01-10T21:23:47.745Z,66.90
2019-01-10T21:26:26.117Z,67.20
2019-01-10T21:29:03.339Z,67.40
2019-01-10T21:31:45.089Z,68.20
2019-01-10T21:34:26.079Z,67.30
2019-01-10T21:37:04.577Z,67.20
2019-01-10T21:39:42.259Z,67.00
2019-01-10T21:42:19.998Z,67.10
2019-01-10T21:44:57.569Z,67.30
2019-01-10T21:47:35.697Z,67.20
2019-01-10T21:50:15.890Z,67.20
2019-01-10T21:52:54.923Z,67.30
2019-01-10T21:55:34.777Z,67.30
2019-01-10T21:58:14.594Z,67.30
2019-01-10T22:00:52.425Z,67.40
2019-01-10T22:03:31.024Z,67.40
2019-01-10T22:06:13.515Z,67.60
2019-01-10T22:08:53.589Z,67.50
2019-01-10T22:11:31.266Z,67.80
2019-01-10T22:14:12.088Z,67.90
2019-01-10T22:16:50.217Z,68.10
2019-01-10T22:19:27.831Z,68.30
2019-01-10T22:22:06.943Z,68.80
2019-01-10T22:24:44.419Z,68.80
2019-01-10T22:27:23.566Z,69.30
2019-01-10T22:30:03.584Z,69.50
2019-01-10T22:32:42.308Z,69.90
2019-01-10T22:35:23.668Z,69.80
2019-01-10T22:38:05.639Z,69.80
2019-01-10T22:40:44.271Z,70.30
2019-01-10T22:43:23.248Z,70.50
2019-01-10T22:46:02.313Z,70.40
2019-01-10T22:48:47.715Z,70.40
2019-01-10T22:51:20.754Z,71.20
2019-01-10T22:54:02.224Z,71.10
2019-01-10T22:56:43.243Z,71.10
2019-01-10T22:59:24.378Z,71.00
2019-01-10T23:02:03.437Z,70.60
2019-01-10T23:04:41.719Z,70.70
2019-01-10T23:07:39.151Z,71.30
2019-01-10T23:10:20.442Z,70.50
2019-01-10T23:12:59.445Z,72.30
2019-01-10T23:15:38.001Z,70.90
2019-01-10T23:18:19.946Z,71.50
2019-01-10T23:21:06.801Z,71.00
2019-01-10T23:23:47.889Z,70.80
2019-01-10T23:26:27.393Z,70.80
2019-01-10T23:29:05.830Z,71.80
2019-01-10T23:31:44.384Z,71.80
2019-01-10T23:34:27.359Z,72.90
2019-01-10T23:37:05.563Z,72.50
2019-01-10T23:39:44.158Z,72.60
2019-01-10T23:42:22.280Z,71.70
2019-01-10T23:45:03.187Z,73.50
2019-01-10T23:47:41.441Z,71.50
2019-01-10T23:50:20.405Z,72.50
2019-01-10T23:53:00.013Z,71.50
2019-01-10T23:55:40.365Z,72.90
2019-01-10T23:58:18.701Z,72.70
